createdAt,value
2023-05-21T01:37:16.419Z,100.00
2023-05-21T01:45:17.473Z,100.00
2023-05-21T01:46:28.265Z,100.00
2023-05-21T01:47:43.684Z,100.00
2023-05-21T01:49:34.707Z,100.00
2023-05-21T01:50:58.190Z,100.00
2023-05-21T03:55:47.321Z,100.00
2023-05-21T04:18:18.261Z,100.00
2023-05-21T04:24:30.089Z,100.00
2023-05-21T05:02:42.458Z,100.00
2023-05-21T05:20:40.783Z,100.00
2023-05-21T06:10:01.793Z,100.00
2023-05-21T06:12:15.117Z,100.00
2023-05-21T06:13:29.458Z,100.00
2023-05-21T06:14:33.278Z,100.00
2023-05-21T06:15:36.338Z,100.00
2023-05-21T06:16:40.032Z,100.00
2023-05-21T06:17:42.361Z,100.00
2023-05-21T06:18:49.195Z,100.00
2023-05-21T06:19:51.736Z,100.00
2023-05-21T06:20:54.098Z,100.00
2023-05-21T06:21:57.931Z,100.00
2023-05-21T06:23:03.586Z,100.00
2023-05-21T06:24:07.510Z,100.00
2023-05-21T06:25:11.089Z,100.00
2023-05-21T06:26:14.171Z,100.00
2023-05-21T06:27:16.483Z,100.00
2023-05-21T06:28:19.762Z,100.00
2023-05-21T06:29:23.660Z,100.00
2023-05-21T06:30:25.828Z,100.00
2023-05-21T06:31:28.780Z,100.00
2023-05-21T06:32:31.020Z,100.00
2023-05-21T06:33:41.547Z,100.00
2023-05-21T06:34:43.851Z,100.00
2023-05-21T06:35:47.200Z,100.00
2023-05-21T06:36:49.811Z,100.00
2023-05-21T06:37:53.072Z,100.00
2023-05-21T06:39:00.001Z,100.00
2023-05-21T06:40:03.264Z,100.00
2023-05-21T06:41:07.149Z,100.00
2023-05-21T06:42:21.605Z,100.00
2023-05-21T06:43:42.666Z,100.00
2023-05-21T06:45:23.741Z,100.00
2023-05-21T06:46:28.970Z,100.00
2023-05-21T06:47:31.689Z,100.00
2023-05-21T06:48:45.104Z,100.00
2023-05-21T06:49:47.833Z,100.00
2023-05-21T06:50:51.137Z,100.00
2023-05-21T06:51:53.527Z,100.00
2023-05-21T06:52:55.718Z,100.00
2023-05-21T06:53:57.993Z,100.00
2023-05-21T06:55:00.140Z,100.00
2023-05-21T06:56:07.114Z,94.33
2023-05-21T06:57:17.206Z,89.78
2023-05-21T06:58:19.852Z,91.36
2023-05-21T06:59:23.326Z,82.09
2023-05-21T07:00:25.943Z,79.45
2023-05-21T07:01:28.736Z,84.12
2023-05-21T07:02:32.445Z,78.98
2023-05-21T07:03:36.696Z,76.48
2023-05-21T07:04:38.808Z,74.03
2023-05-21T07:05:40.821Z,84.49
2023-05-21T07:06:42.965Z,88.90
2023-05-21T07:07:44.945Z,88.26
2023-05-21T07:08:48.195Z,88.83
2023-05-21T07:09:50.107Z,92.34
2023-05-21T07:10:53.033Z,90.62
2023-05-21T07:11:54.914Z,91.02
2023-05-21T07:12:57.317Z,83.58
2023-05-21T07:14:04.063Z,78.10
2023-05-21T07:15:09.371Z,71.81
2023-05-21T07:16:11.460Z,73.69
2023-05-21T07:17:14.969Z,81.70
2023-05-21T07:18:19.486Z,84.55
2023-05-21T07:19:23.812Z,86.67
2023-05-21T07:20:25.840Z,86.22
2023-05-21T07:21:33.273Z,88.73
2023-05-21T07:22:35.257Z,91.50
2023-05-21T07:23:39.483Z,98.20
2023-05-21T07:24:43.015Z,99.61
2023-05-21T07:25:45.187Z,99.16
2023-05-21T07:26:48.578Z,100.00
2023-05-21T07:27:51.726Z,100.00
2023-05-21T07:28:54.170Z,100.00
2023-05-21T07:29:59.461Z,100.00
2023-05-21T07:31:01.826Z,100.00
2023-05-21T07:32:10.195Z,100.00
2023-05-21T07:33:12.860Z,100.00
2023-05-21T07:34:16.201Z,100.00
2023-05-21T07:35:18.666Z,100.00
2023-05-21T07:36:21.309Z,100.00
2023-05-21T07:37:23.512Z,100.00
2023-05-21T07:38:26.305Z,100.00
2023-05-21T07:39:28.433Z,100.00
2023-05-21T07:40:30.651Z,100.00
2023-05-21T07:41:32.922Z,100.00
2023-05-21T07:42:37.609Z,100.00
2023-05-21T07:43:39.741Z,100.00
2023-05-21T07:44:41.693Z,100.00
2023-05-21T07:45:44.008Z,100.00
2023-05-21T07:46:46.284Z,100.00
2023-05-21T07:47:48.351Z,100.00
2023-05-21T07:48:51.698Z,95.46
2023-05-21T07:49:54.739Z,98.24
2023-05-21T07:50:58.950Z,98.27
2023-05-21T07:52:02.216Z,99.22
2023-05-21T07:53:04.871Z,98.25
2023-05-21T07:54:07.389Z,95.81
2023-05-21T07:55:11.970Z,95.66
2023-05-21T07:56:15.646Z,96.52
2023-05-21T07:57:18.447Z,98.03
2023-05-21T07:58:32.590Z,97.79
2023-05-21T07:59:34.835Z,99.25
2023-05-21T08:00:45.372Z,100.00
2023-05-21T08:03:07.063Z,99.77
2023-05-21T08:04:41.339Z,97.30
2023-05-21T08:05:51.056Z,96.31
2023-05-21T08:06:54.399Z,95.59
2023-05-21T08:07:57.200Z,96.25
2023-05-21T08:09:05.061Z,91.77
2023-05-21T08:10:12.260Z,93.16
2023-05-21T08:11:16.116Z,89.97
2023-05-21T08:12:19.947Z,87.40
2023-05-21T08:13:31.976Z,85.91
2023-05-21T08:14:35.711Z,85.83
2023-05-21T08:15:38.409Z,83.00
2023-05-21T08:16:42.343Z,79.09
2023-05-21T08:17:44.932Z,77.51
2023-05-21T08:18:48.251Z,76.27
2023-05-21T08:19:51.429Z,77.33
2023-05-21T08:20:54.485Z,79.29
2023-05-21T08:22:00.183Z,82.60
2023-05-21T08:23:04.122Z,82.13
2023-05-21T08:24:14.584Z,77.84
2023-05-21T08:25:17.024Z,75.38
2023-05-21T08:26:19.537Z,76.85
2023-05-21T08:27:21.656Z,77.18
2023-05-21T08:28:23.952Z,80.54
2023-05-21T08:29:29.735Z,82.99
2023-05-21T08:30:31.860Z,83.37
2023-05-21T08:31:40.479Z,80.16
2023-05-21T08:32:43.550Z,78.73
2023-05-21T08:33:53.106Z,79.56
2023-05-21T08:35:03.417Z,75.19
2023-05-21T08:36:25.044Z,68.36
2023-05-21T08:37:33.885Z,68.20
2023-05-21T08:38:45.204Z,65.37
2023-05-21T08:39:50.926Z,63.18
2023-05-21T08:40:56.816Z,66.24
2023-05-21T08:42:36.534Z,62.88
2023-05-21T08:43:40.489Z,61.22
2023-05-21T08:44:49.111Z,58.78
2023-05-21T08:45:55.361Z,56.50
2023-05-21T08:47:06.520Z,55.55
2023-05-21T08:48:11.974Z,53.51
2023-05-21T08:49:18.888Z,53.36
2023-05-21T08:50:22.109Z,52.65
2023-05-21T08:51:24.316Z,53.63
2023-05-21T08:52:28.049Z,51.31
2023-05-21T08:53:30.699Z,53.23
2023-05-21T08:54:34.585Z,50.58
2023-05-21T08:55:39.063Z,49.09
2023-05-21T08:56:47.225Z,49.75
2023-05-21T08:57:53.882Z,50.37
2023-05-21T08:59:01.730Z,49.41
2023-05-21T09:00:08.868Z,50.29
2023-05-21T09:01:12.584Z,50.25
2023-05-21T09:02:20.137Z,49.33
2023-05-21T09:03:23.223Z,48.47
2023-05-21T09:04:27.741Z,48.78
2023-05-21T09:05:31.446Z,48.20
2023-05-21T09:06:34.010Z,50.56
2023-05-21T09:07:43.989Z,52.32
2023-05-21T09:09:00.260Z,52.12
2023-05-21T09:10:14.175Z,55.27
2023-05-21T09:11:17.607Z,54.96
2023-05-21T09:12:26.301Z,55.01
2023-05-21T09:13:31.882Z,52.75
2023-05-21T09:14:37.347Z,53.09
2023-05-21T09:15:49.171Z,53.60
2023-05-21T09:16:56.676Z,54.65
2023-05-21T09:18:00.405Z,52.03
2023-05-21T09:19:25.816Z,53.52
2023-05-21T09:20:28.997Z,54.84
2023-05-21T09:21:37.960Z,59.22
2023-05-21T09:22:47.898Z,59.65
2023-05-21T09:23:57.954Z,60.02
2023-05-21T09:25:05.188Z,58.72
2023-05-21T09:26:12.885Z,57.56
2023-05-21T09:27:18.234Z,59.44
2023-05-21T09:28:20.789Z,59.12
2023-05-21T09:29:26.401Z,57.50
2023-05-21T09:30:30.770Z,56.65
2023-05-21T09:31:35.356Z,56.64
2023-05-21T09:32:38.897Z,57.88
2023-05-21T09:33:48.324Z,60.46
2023-05-21T09:34:51.515Z,61.69
2023-05-21T09:35:53.794Z,61.72
2023-05-21T09:37:31.736Z,60.65
2023-05-21T09:39:58.575Z,64.40
2023-05-21T09:41:06.324Z,68.26
2023-05-21T09:42:32.134Z,68.65
2023-05-21T09:43:34.401Z,71.10
2023-05-21T09:44:44.287Z,70.12
2023-05-21T09:45:54.498Z,72.35
2023-05-21T09:47:00.776Z,68.35
2023-05-21T09:48:03.904Z,72.57
2023-05-21T09:49:07.628Z,74.87
2023-05-21T09:50:13.305Z,74.60
2023-05-21T09:51:15.185Z,71.47
2023-05-21T09:52:26.375Z,71.63
2023-05-21T09:53:29.687Z,73.14
2023-05-21T09:54:37.552Z,73.28
2023-05-21T09:55:41.790Z,72.64
2023-05-21T09:56:43.825Z,71.13
2023-05-21T09:57:50.937Z,72.27
2023-05-21T09:58:57.907Z,70.21
2023-05-21T10:00:02.016Z,70.70
2023-05-21T10:01:08.725Z,70.08
2023-05-21T10:02:26.665Z,69.97
2023-05-21T10:03:32.043Z,69.94
2023-05-21T10:04:38.651Z,68.98
2023-05-21T10:05:42.750Z,68.25
2023-05-21T10:06:48.060Z,67.42
2023-05-21T10:07:53.379Z,67.31
2023-05-21T10:08:57.057Z,67.00
2023-05-21T10:10:03.677Z,66.06
2023-05-21T10:11:06.488Z,67.05
2023-05-21T10:12:11.834Z,66.55
2023-05-21T10:13:18.765Z,66.48
2023-05-21T10:14:28.181Z,67.18
2023-05-21T10:15:39.219Z,66.80
2023-05-21T10:16:45.199Z,67.75
2023-05-21T10:17:48.660Z,67.62
2023-05-21T10:18:54.334Z,69.23
2023-05-21T10:19:57.352Z,68.30
2023-05-21T10:21:00.972Z,67.87
2023-05-21T10:22:04.654Z,70.03
2023-05-21T10:23:09.356Z,68.59
2023-05-21T10:24:12.790Z,68.88
2023-05-21T10:25:18.689Z,68.37
2023-05-21T10:26:22.191Z,68.12
2023-05-21T10:27:24.684Z,69.06
2023-05-21T10:28:28.369Z,68.73
2023-05-21T10:29:32.405Z,69.25
2023-05-21T10:30:37.105Z,68.75
2023-05-21T10:31:39.823Z,71.89
2023-05-21T10:32:43.499Z,72.27
2023-05-21T10:33:45.913Z,73.09
2023-05-21T10:35:17.062Z,72.86
2023-05-21T10:36:21.011Z,70.55
2023-05-21T10:37:28.008Z,69.55
2023-05-21T10:38:30.915Z,70.53
2023-05-21T10:39:34.148Z,71.07
2023-05-21T10:40:36.777Z,71.33
2023-05-21T10:42:16.773Z,68.33
2023-05-21T10:43:46.839Z,66.03
2023-05-21T10:45:09.016Z,67.71
2023-05-21T10:46:46.585Z,67.17
2023-05-21T10:48:07.620Z,67.99
2023-05-21T10:49:32.344Z,67.16
2023-05-21T10:50:58.217Z,66.08
2023-05-21T10:52:25.108Z,65.81
2023-05-21T10:53:56.569Z,64.49
2023-05-21T10:55:18.291Z,64.10
2023-05-21T10:56:25.816Z,62.00
2023-05-21T10:57:47.111Z,64.84
2023-05-21T10:59:08.130Z,65.37
2023-05-21T11:00:12.922Z,67.79
2023-05-21T11:01:16.686Z,68.38
2023-05-21T11:02:21.164Z,69.08
2023-05-21T11:03:23.937Z,71.34
2023-05-21T11:04:27.161Z,68.19
2023-05-21T11:05:52.722Z,68.53
2023-05-21T11:06:56.492Z,67.98
2023-05-21T11:07:58.776Z,67.96
2023-05-21T11:09:14.720Z,67.11
2023-05-21T11:10:38.553Z,68.25
2023-05-21T11:11:48.445Z,68.93
2023-05-21T11:13:16.403Z,69.38
2023-05-21T11:14:36.248Z,68.35
2023-05-21T11:16:03.158Z,68.91
2023-05-21T11:17:41.723Z,69.58
2023-05-21T11:18:51.610Z,71.11
2023-05-21T11:19:55.014Z,69.07
2023-05-21T11:21:08.858Z,70.01
2023-05-21T11:22:22.548Z,68.17
2023-05-21T11:23:44.629Z,67.13
2023-05-21T11:24:49.367Z,65.46
2023-05-21T11:26:03.068Z,66.01
2023-05-21T11:27:07.006Z,66.60
2023-05-21T11:28:12.772Z,66.28
2023-05-21T11:29:17.044Z,66.90
2023-05-21T11:30:23.294Z,67.08
2023-05-21T11:31:30.585Z,66.25
2023-05-21T11:32:32.711Z,66.94
2023-05-21T11:33:37.421Z,67.93
2023-05-21T11:34:41.079Z,68.74
2023-05-21T11:35:46.313Z,68.94
2023-05-21T11:36:50.177Z,69.44
2023-05-21T11:37:55.756Z,68.84
2023-05-21T11:39:19.298Z,68.45
2023-05-21T11:40:27.351Z,68.34
2023-05-21T11:42:01.005Z,69.14
2023-05-21T11:43:06.625Z,70.90
2023-05-21T11:44:14.302Z,69.35
2023-05-21T11:45:20.473Z,70.42
2023-05-21T11:46:23.827Z,67.73
2023-05-21T11:47:43.506Z,68.60
2023-05-21T11:48:46.952Z,68.98
2023-05-21T11:50:30.667Z,68.18
2023-05-21T11:51:33.754Z,68.38
2023-05-21T11:52:40.229Z,71.54
2023-05-21T11:53:45.734Z,71.11
2023-05-21T11:54:56.985Z,71.10
2023-05-21T11:56:02.137Z,71.17
2023-05-21T11:57:07.918Z,70.89
2023-05-21T11:58:13.804Z,71.26
2023-05-21T11:59:19.063Z,69.75
2023-05-21T12:00:23.700Z,70.10
2023-05-21T12:01:32.126Z,69.88
2023-05-21T12:02:34.195Z,71.98
2023-05-21T12:03:39.191Z,70.51
2023-05-21T12:04:43.207Z,69.38
2023-05-21T12:05:52.741Z,69.76
2023-05-21T12:06:58.530Z,69.85
2023-05-21T12:08:02.423Z,68.92
2023-05-21T12:09:13.049Z,68.30
2023-05-21T12:10:15.785Z,68.81
2023-05-21T12:11:25.728Z,70.07
2023-05-21T12:12:42.139Z,70.06
2023-05-21T12:13:52.778Z,67.61
2023-05-21T12:15:22.227Z,66.76
2023-05-21T12:16:24.794Z,66.78
2023-05-21T12:17:37.802Z,65.70
2023-05-21T12:18:47.098Z,65.65
2023-05-21T12:20:02.500Z,65.89
2023-05-21T12:21:07.270Z,66.31
2023-05-21T12:22:10.320Z,66.53
2023-05-21T12:23:25.472Z,66.46
2023-05-21T12:24:28.424Z,66.15
2023-05-21T12:25:32.259Z,66.15
2023-05-21T12:26:35.972Z,67.24
2023-05-21T12:27:39.340Z,68.64
2023-05-21T12:28:42.346Z,65.92
2023-05-21T12:29:52.333Z,66.13
2023-05-21T12:30:56.441Z,66.69
2023-05-21T12:32:03.039Z,67.23
2023-05-21T12:33:05.697Z,68.98
2023-05-21T12:34:19.086Z,68.50
2023-05-21T12:35:30.707Z,70.06
2023-05-21T12:36:35.494Z,71.56
2023-05-21T12:37:43.792Z,70.63
2023-05-21T12:39:11.192Z,67.43
2023-05-21T12:40:14.885Z,68.04
2023-05-21T12:41:21.587Z,67.90
2023-05-21T12:42:32.050Z,70.72
2023-05-21T12:43:37.094Z,68.01
2023-05-21T12:44:45.499Z,66.82
2023-05-21T12:45:52.726Z,67.30
2023-05-21T12:46:55.940Z,66.75
2023-05-21T12:48:03.958Z,65.40
2023-05-21T12:49:14.368Z,65.22
2023-05-21T12:50:43.981Z,65.90
2023-05-21T12:52:19.938Z,64.30
2023-05-21T12:53:22.349Z,64.05
2023-05-21T12:54:38.251Z,64.98
2023-05-21T12:55:40.857Z,66.47
2023-05-21T12:56:47.783Z,67.09
2023-05-21T12:57:52.212Z,66.66
2023-05-21T12:58:57.865Z,66.72
2023-05-21T13:00:02.632Z,65.37
2023-05-21T13:01:12.886Z,66.74
2023-05-21T13:02:25.023Z,66.95
2023-05-21T13:03:35.597Z,67.13
2023-05-21T13:04:41.396Z,67.71
2023-05-21T13:05:44.650Z,69.03
2023-05-21T13:06:46.844Z,69.69
2023-05-21T13:07:51.315Z,68.93
2023-05-21T13:08:56.343Z,69.95
2023-05-21T13:10:03.645Z,69.20
2023-05-21T13:11:06.416Z,69.59
2023-05-21T13:12:08.569Z,69.73
2023-05-21T13:13:10.561Z,69.15
2023-05-21T13:14:16.448Z,70.31
2023-05-21T13:15:18.850Z,71.24
2023-05-21T13:16:23.029Z,71.10
2023-05-21T13:17:26.243Z,69.91
2023-05-21T13:18:28.283Z,68.90
2023-05-21T13:19:31.608Z,69.08
2023-05-21T13:20:37.153Z,68.99
2023-05-21T13:21:41.608Z,69.66
2023-05-21T13:22:47.197Z,69.92
2023-05-21T13:23:49.470Z,69.98
2023-05-21T13:24:52.593Z,70.49
2023-05-21T13:25:55.510Z,71.08
2023-05-21T13:26:57.538Z,70.10
2023-05-21T13:28:03.866Z,70.69
2023-05-21T13:29:05.971Z,70.45
2023-05-21T13:30:11.876Z,71.81
2023-05-21T13:31:15.777Z,71.49
2023-05-21T13:32:19.076Z,71.57
2023-05-21T13:33:21.559Z,70.71
2023-05-21T13:34:23.708Z,72.04
2023-05-21T13:35:25.779Z,72.08
2023-05-21T13:36:27.882Z,72.65
2023-05-21T13:37:30.094Z,73.02
2023-05-21T13:38:32.089Z,75.85
2023-05-21T13:39:34.147Z,75.73
2023-05-21T13:40:39.133Z,72.62
2023-05-21T13:41:42.580Z,72.60
2023-05-21T13:42:46.846Z,73.82
2023-05-21T13:43:50.536Z,72.11
2023-05-21T13:44:53.040Z,72.82
2023-05-21T13:45:55.208Z,73.46
2023-05-21T13:46:57.272Z,73.73
2023-05-21T13:47:59.848Z,75.29
2023-05-21T13:49:05.189Z,75.60
2023-05-21T13:50:12.245Z,76.85
2023-05-21T13:51:25.531Z,77.58
2023-05-21T13:52:38.224Z,77.74
2023-05-21T13:53:40.393Z,77.80
2023-05-21T13:54:43.172Z,78.30
2023-05-21T13:55:45.482Z,77.96
2023-05-21T13:56:47.664Z,77.32
2023-05-21T13:57:49.560Z,77.20
2023-05-21T13:58:54.715Z,78.44
2023-05-21T13:59:59.841Z,77.97
2023-05-21T14:01:03.189Z,78.69
2023-05-21T14:02:05.490Z,78.53
2023-05-21T14:03:10.004Z,77.63
2023-05-21T14:04:12.538Z,76.58
2023-05-21T14:05:18.650Z,76.43
2023-05-21T14:06:20.670Z,75.40
2023-05-21T14:07:23.444Z,74.87
2023-05-21T14:08:27.657Z,75.10
2023-05-21T14:09:31.132Z,75.36
2023-05-21T14:10:34.255Z,75.39
2023-05-21T14:11:36.862Z,76.31
2023-05-21T14:12:39.278Z,75.98
2023-05-21T14:13:41.591Z,75.40
2023-05-21T14:14:50.051Z,75.20
2023-05-21T14:15:57.782Z,75.04
2023-05-21T14:17:01.065Z,74.93
2023-05-21T14:18:08.093Z,74.51
2023-05-21T14:19:10.564Z,75.21
2023-05-21T14:20:13.750Z,75.06
2023-05-21T14:21:25.388Z,74.20
2023-05-21T14:22:27.709Z,75.29
2023-05-21T14:23:29.773Z,75.33
2023-05-21T14:24:31.790Z,76.57
2023-05-21T14:25:34.276Z,76.88
2023-05-21T14:26:41.181Z,76.50
2023-05-21T14:27:43.559Z,76.63
2023-05-21T14:28:46.393Z,77.80
2023-05-21T14:29:48.571Z,77.09
2023-05-21T14:30:52.100Z,77.87
2023-05-21T14:31:54.483Z,78.26
2023-05-21T14:32:57.951Z,78.35
2023-05-21T14:34:00.428Z,78.85
2023-05-21T14:35:05.762Z,79.34
2023-05-21T14:36:09.281Z,79.64
2023-05-21T14:37:34.031Z,79.59
2023-05-21T14:39:00.318Z,80.68
2023-05-21T14:40:05.673Z,80.44
2023-05-21T14:41:08.899Z,81.13
2023-05-21T14:42:11.479Z,81.17
2023-05-21T14:43:13.698Z,81.44
2023-05-21T14:44:16.487Z,81.07
2023-05-21T14:45:19.734Z,80.31
2023-05-21T14:46:22.639Z,82.02
2023-05-21T14:47:25.898Z,83.53
2023-05-21T14:48:28.302Z,83.95
2023-05-21T14:49:30.359Z,84.10
2023-05-21T14:50:32.696Z,84.18
2023-05-21T14:51:38.475Z,84.83
2023-05-21T14:52:42.886Z,86.36
2023-05-21T14:53:49.353Z,86.30
2023-05-21T14:54:51.901Z,87.25
2023-05-21T14:55:56.877Z,88.56
2023-05-21T14:56:59.463Z,88.42
2023-05-21T14:58:01.687Z,88.36
2023-05-21T14:59:06.001Z,88.50
2023-05-21T15:00:08.965Z,89.31
2023-05-21T15:01:11.767Z,88.37
2023-05-21T15:02:14.132Z,88.70
2023-05-21T15:03:19.519Z,88.12
2023-05-21T15:04:22.775Z,88.94
2023-05-21T15:05:26.698Z,88.76
2023-05-21T15:06:32.665Z,88.68
2023-05-21T15:07:34.904Z,88.98
2023-05-21T15:08:37.232Z,89.09
2023-05-21T15:09:39.428Z,89.18
2023-05-21T15:10:41.454Z,89.95
2023-05-21T15:11:44.818Z,89.67
2023-05-21T15:12:46.907Z,89.47
2023-05-21T15:13:49.126Z,89.19
2023-05-21T15:14:52.931Z,89.52
2023-05-21T15:15:55.220Z,88.73
2023-05-21T15:16:57.496Z,89.00
2023-05-21T15:18:02.901Z,89.14
2023-05-21T15:19:05.310Z,88.68
2023-05-21T15:20:09.537Z,88.17
2023-05-21T15:21:12.312Z,88.23
2023-05-21T15:22:14.295Z,87.17
2023-05-21T15:23:17.704Z,86.72
2023-05-21T15:24:20.477Z,87.43
2023-05-21T15:25:25.214Z,86.17
2023-05-21T15:26:27.326Z,86.54
2023-05-21T15:27:29.408Z,86.02
2023-05-21T15:28:31.392Z,86.08
2023-05-21T15:29:33.349Z,86.12
2023-05-21T15:31:28.497Z,86.35
2023-05-21T15:32:31.634Z,87.31
2023-05-21T15:33:33.780Z,87.06
2023-05-21T15:34:36.908Z,84.33
2023-05-21T15:35:40.275Z,81.67
2023-05-21T15:36:42.571Z,80.75
2023-05-21T15:37:45.617Z,81.26
2023-05-21T15:38:48.745Z,81.83
2023-05-21T15:39:50.834Z,81.79
2023-05-21T15:40:53.461Z,81.07
2023-05-21T15:41:55.668Z,80.58
2023-05-21T15:42:57.607Z,82.55
2023-05-21T15:43:59.734Z,82.66
2023-05-21T15:45:01.745Z,83.57
2023-05-21T15:46:07.867Z,83.91
2023-05-21T15:47:10.296Z,85.05
2023-05-21T15:48:13.174Z,85.45
2023-05-21T15:49:18.050Z,85.43
2023-05-21T15:50:21.464Z,85.29
2023-05-21T15:51:23.631Z,85.31
2023-05-21T15:52:25.723Z,85.53
2023-05-21T15:53:27.714Z,85.17
2023-05-21T15:54:30.834Z,85.66
2023-05-21T15:55:33.541Z,84.28
2023-05-21T15:56:35.813Z,84.34
2023-05-21T15:57:38.196Z,84.95
2023-05-21T15:58:40.240Z,85.21
2023-05-21T15:59:42.266Z,85.29
2023-05-21T16:00:44.550Z,85.15
2023-05-21T16:01:47.194Z,85.75
2023-05-21T16:02:49.587Z,84.56
2023-05-21T16:03:51.663Z,85.64
2023-05-21T16:04:53.943Z,85.97
2023-05-21T16:07:18.198Z,85.80
2023-05-21T16:08:32.106Z,85.67
2023-05-21T16:12:58.553Z,86.62
2023-05-21T16:14:00.584Z,87.35
2023-05-21T16:15:03.127Z,87.27
2023-05-21T16:16:09.569Z,87.66
2023-05-21T16:17:21.007Z,88.02
2023-05-21T16:18:36.264Z,88.51
2023-05-21T16:19:44.579Z,87.14
2023-05-21T16:21:17.973Z,88.17
2023-05-21T16:36:02.811Z,88.03
2023-05-21T16:45:00.754Z,89.41
2023-05-21T16:47:02.007Z,91.32
2023-05-21T16:48:08.820Z,89.63
2023-05-21T16:49:11.322Z,90.46
2023-05-21T16:50:17.030Z,90.98
2023-05-21T16:52:20.701Z,90.64
2023-05-21T16:54:45.782Z,89.57
2023-05-21T16:55:49.132Z,90.04
2023-05-21T16:57:05.357Z,90.25
2023-05-21T16:58:14.025Z,90.61
2023-05-21T16:59:38.334Z,91.14
2023-05-21T17:00:43.128Z,91.04
2023-05-21T17:01:46.105Z,92.31
2023-05-21T17:02:51.014Z,91.65
2023-05-21T17:09:00.304Z,94.63
2023-05-21T17:10:03.513Z,94.40
2023-05-21T17:19:45.541Z,98.30
2023-05-21T17:20:51.163Z,98.79
2023-05-21T17:22:02.625Z,98.77
2023-05-21T17:25:40.458Z,100.00
2023-05-21T17:26:43.987Z,100.00
2023-05-21T17:28:43.754Z,100.00
2023-05-21T17:29:46.082Z,100.00
2023-05-21T17:30:51.688Z,100.00
2023-05-21T17:31:53.894Z,100.00
2023-05-21T17:33:37.568Z,100.00
2023-05-21T17:35:00.978Z,100.00
2023-05-21T17:36:13.887Z,100.00
2023-05-21T17:37:15.932Z,100.00
2023-05-21T17:38:22.828Z,100.00
2023-05-21T17:39:28.070Z,100.00
2023-05-21T17:41:05.031Z,100.00
2023-05-21T17:42:29.028Z,100.00
2023-05-21T17:43:32.464Z,100.00
2023-05-21T17:44:34.904Z,100.00
2023-05-21T17:45:43.898Z,100.00
2023-05-21T17:47:32.479Z,100.00
2023-05-21T17:48:34.653Z,100.00
2023-05-21T17:49:38.100Z,100.00
2023-05-21T17:50:40.642Z,100.00
2023-05-21T17:51:52.266Z,100.00
2023-05-21T17:53:29.865Z,100.00
2023-05-21T17:54:38.750Z,100.00
2023-05-21T17:56:11.565Z,100.00
2023-05-21T17:57:16.580Z,100.00
2023-05-21T17:58:20.533Z,100.00
2023-05-21T17:59:24.596Z,100.00
2023-05-21T18:00:34.086Z,100.00
2023-05-21T18:01:37.744Z,100.00
2023-05-21T18:02:39.728Z,100.00
2023-05-21T18:03:46.423Z,100.00
2023-05-21T18:05:09.746Z,100.00
2023-05-21T18:06:12.153Z,100.00
2023-05-21T18:07:16.560Z,100.00
2023-05-21T18:08:18.597Z,100.00
2023-05-21T18:09:20.781Z,100.00
2023-05-21T18:10:25.722Z,100.00
2023-05-21T18:11:28.907Z,100.00
2023-05-21T18:12:30.759Z,100.00
2023-05-21T18:13:32.934Z,100.00
2023-05-21T18:14:38.264Z,100.00
2023-05-21T18:15:45.701Z,100.00
2023-05-21T18:16:50.019Z,100.00
2023-05-21T18:17:55.063Z,100.00
2023-05-21T18:19:02.305Z,100.00
2023-05-21T18:20:05.262Z,100.00
2023-05-21T18:21:07.428Z,100.00
2023-05-21T18:22:09.696Z,100.00
2023-05-21T18:25:39.021Z,100.00
2023-05-21T18:27:07.763Z,100.00
2023-05-21T18:28:19.520Z,100.00
2023-05-21T18:29:34.627Z,100.00
2023-05-21T18:31:10.301Z,100.00
2023-05-21T18:33:08.570Z,100.00
2023-05-21T18:34:36.819Z,100.00
2023-05-21T18:36:20.122Z,100.00
2023-05-21T18:37:34.044Z,100.00
2023-05-21T18:38:49.100Z,100.00
2023-05-21T18:40:02.137Z,100.00
2023-05-21T18:41:35.832Z,100.00
2023-05-21T18:42:44.232Z,100.00
2023-05-21T18:43:54.595Z,100.00
2023-05-21T18:45:01.555Z,100.00
2023-05-21T18:46:47.896Z,100.00
2023-05-21T18:48:01.776Z,100.00
2023-05-21T18:49:06.412Z,100.00
2023-05-21T18:50:14.215Z,100.00
2023-05-21T18:51:45.803Z,100.00
2023-05-21T18:53:02.433Z,100.00
2023-05-21T18:54:08.038Z,100.00
2023-05-21T18:55:26.017Z,100.00
2023-05-21T18:57:00.648Z,100.00
2023-05-21T18:58:30.666Z,100.00
2023-05-21T19:03:10.472Z,100.00
2023-05-21T19:07:34.915Z,100.00
2023-05-21T19:11:05.061Z,100.00
2023-05-21T19:12:14.478Z,100.00
2023-05-21T19:14:00.224Z,100.00
2023-05-21T19:16:05.916Z,100.00
2023-05-21T19:17:26.413Z,100.00
2023-05-21T19:18:43.393Z,100.00
2023-05-21T19:21:49.154Z,100.00
2023-05-21T19:23:14.061Z,100.00
2023-05-21T19:24:21.695Z,100.00
2023-05-21T19:25:30.049Z,100.00
2023-05-21T19:26:41.526Z,100.00
2023-05-21T19:27:46.585Z,100.00
2023-05-21T19:28:56.968Z,100.00
2023-05-21T19:30:18.074Z,100.00
2023-05-21T19:32:21.345Z,100.00
2023-05-21T19:33:28.334Z,100.00
2023-05-21T19:34:42.313Z,100.00
2023-05-21T19:35:49.880Z,100.00
2023-05-21T19:37:09.069Z,100.00
2023-05-21T19:44:17.647Z,100.00
2023-05-21T19:52:51.647Z,100.00
2023-05-21T19:54:36.838Z,100.00
2023-05-21T19:55:45.529Z,100.00
2023-05-21T19:57:40.559Z,100.00
2023-05-21T19:58:51.038Z,100.00
2023-05-21T19:59:55.760Z,100.00
2023-05-21T20:01:28.029Z,100.00
2023-05-21T20:02:37.506Z,100.00
2023-05-21T20:03:48.855Z,100.00
2023-05-21T20:07:35.659Z,100.00
2023-05-21T20:22:51.887Z,100.00
2023-05-21T20:24:06.137Z,100.00
2023-05-21T20:25:29.957Z,100.00
2023-05-21T20:26:41.183Z,100.00
2023-05-21T20:27:54.696Z,100.00
2023-05-21T20:29:34.452Z,100.00
2023-05-21T20:33:30.986Z,100.00
2023-05-21T20:35:03.340Z,100.00
2023-05-21T20:36:38.191Z,100.00
2023-05-21T20:37:44.761Z,100.00
2023-05-21T20:38:50.059Z,100.00
2023-05-21T20:42:00.004Z,100.00
2023-05-21T20:43:15.550Z,100.00
2023-05-21T20:44:28.494Z,100.00
2023-05-21T20:45:45.970Z,100.00
2023-05-21T20:48:53.721Z,100.00
2023-05-21T20:50:06.203Z,100.00
2023-05-21T20:51:23.308Z,100.00
2023-05-21T20:52:47.075Z,100.00
2023-05-21T20:54:17.018Z,100.00
2023-05-21T20:55:24.356Z,100.00
2023-05-21T20:56:42.822Z,100.00
2023-05-21T20:57:49.249Z,100.00
2023-05-21T21:02:15.193Z,100.00
2023-05-21T21:03:34.516Z,100.00
2023-05-21T21:04:42.983Z,100.00
2023-05-21T21:07:16.370Z,100.00
2023-05-21T21:08:35.979Z,100.00
2023-05-21T21:09:46.786Z,100.00
2023-05-21T21:11:24.664Z,100.00
2023-05-21T21:12:31.325Z,100.00
2023-05-21T21:13:36.793Z,100.00
2023-05-21T21:16:08.216Z,100.00
2023-05-21T21:18:16.470Z,100.00
2023-05-21T21:20:02.038Z,100.00
2023-05-21T21:21:52.433Z,100.00
2023-05-21T21:23:57.806Z,100.00
2023-05-21T21:27:15.197Z,100.00
2023-05-21T21:29:04.585Z,100.00
2023-05-21T21:34:40.448Z,100.00
2023-05-21T21:45:05.925Z,100.00
2023-05-21T21:46:23.970Z,100.00
2023-05-21T21:47:33.143Z,100.00
2023-05-21T21:58:18.340Z,100.00
2023-05-21T22:07:51.905Z,100.00
2023-05-21T22:11:30.181Z,100.00
2023-05-21T22:12:48.653Z,100.00
2023-05-21T22:14:26.111Z,100.00
2023-05-21T22:15:45.497Z,100.00
2023-05-21T22:17:31.090Z,100.00
2023-05-21T22:20:39.961Z,100.00
2023-05-21T22:23:54.135Z,100.00
2023-05-21T22:25:15.016Z,100.00
2023-05-21T22:27:25.079Z,100.00
2023-05-21T22:29:39.587Z,100.00
2023-05-21T22:34:07.324Z,100.00
2023-05-21T22:39:39.598Z,100.00
2023-05-21T22:41:08.744Z,100.00
2023-05-21T22:47:17.228Z,100.00
2023-05-21T22:48:42.198Z,100.00
2023-05-21T22:50:25.528Z,100.00
2023-05-21T22:53:13.102Z,100.00
2023-05-21T22:55:12.727Z,100.00
2023-05-21T22:58:51.017Z,100.00
2023-05-21T23:00:31.394Z,100.00
2023-05-21T23:02:20.223Z,100.00
2023-05-21T23:09:33.550Z,100.00
2023-05-21T23:13:56.629Z,100.00
2023-05-21T23:15:33.816Z,100.00
2023-05-21T23:18:12.535Z,100.00
2023-05-21T23:38:38.610Z,100.00
2023-05-21T23:40:40.533Z,100.00
2023-05-21T23:45:42.804Z,100.00
2023-05-21T23:47:56.732Z,100.00
2023-05-21T23:49:49.335Z,100.00
2023-05-21T23:51:08.962Z,100.00
2023-05-21T23:53:56.449Z,100.00
2023-05-21T23:55:18.706Z,100.00
2023-05-21T23:58:29.829Z,100.00
2023-05-21T23:59:59.586Z,100.00
